sensor_id;sensor_type;location;lat;lon;timestamp;temperature;humidity
8664;DHT22;4369;47.842;13.096;2023-02-01T00:00:19;4.00;99.90
8664;DHT22;4369;47.842;13.096;2023-02-01T00:02:46;3.90;99.90
8664;DHT22;4369;47.842;13.096;2023-02-01T00:05:13;3.90;99.90
8664;DHT22;4369;47.842;13.096;2023-02-01T00:07:40;3.90;99.90
8664;DHT22;4369;47.842;13.096;2023-02-01T00:10:08;3.80;99.90
8664;DHT22;4369;47.842;13.096;2023-02-01T00:12:36;3.90;99.90
8664;DHT22;4369;47.842;13.096;2023-02-01T00:15:03;3.90;99.90
8664;DHT22;4369;47.842;13.096;2023-02-01T00:17:31;4.00;99.90
8664;DHT22;4369;47.842;13.096;2023-02-01T00:19:58;4.00;99.90
8664;DHT22;4369;47.842;13.096;2023-02-01T00:22:25;4.10;99.90
8664;DHT22;4369;47.842;13.096;2023-02-01T00:24:52;4.10;99.90
8664;DHT22;4369;47.842;13.096;2023-02-01T00:27:19;4.10;99.90
8664;DHT22;4369;47.842;13.096;2023-02-01T00:29:46;4.10;99.90
8664;DHT22;4369;47.842;13.096;2023-02-01T00:32:13;4.10;99.90
8664;DHT22;4369;47.842;13.096;2023-02-01T00:34:41;4.00;99.90
8664;DHT22;4369;47.842;13.096;2023-02-01T00:37:08;4.00;99.90
8664;DHT22;4369;47.842;13.096;2023-02-01T00:39:35;4.00;99.90
8664;DHT22;4369;47.842;13.096;2023-02-01T00:42:02;4.00;99.90
8664;DHT22;4369;47.842;13.096;2023-02-01T00:44:29;4.00;99.90
8664;DHT22;4369;47.842;13.096;2023-02-01T00:46:59;4.00;99.90
8664;DHT22;4369;47.842;13.096;2023-02-01T00:49:26;4.00;99.90
8664;DHT22;4369;47.842;13.096;2023-02-01T00:51:55;3.90;99.90
8664;DHT22;4369;47.842;13.096;2023-02-01T00:54:22;3.80;99.90
8664;DHT22;4369;47.842;13.096;2023-02-01T00:56:49;3.80;99.90
8664;DHT22;4369;47.842;13.096;2023-02-01T00:59:16;3.80;99.90
8664;DHT22;4369;47.842;13.096;2023-02-01T01:01:43;3.80;99.90
8664;DHT22;4369;47.842;13.096;2023-02-01T01:04:09;3.80;99.90
8664;DHT22;4369;47.842;13.096;2023-02-01T01:06:36;3.80;99.90
8664;DHT22;4369;47.842;13.096;2023-02-01T01:09:07;3.60;99.90
8664;DHT22;4369;47.842;13.096;2023-02-01T01:11:36;3.60;99.90
8664;DHT22;4369;47.842;13.096;2023-02-01T01:14:04;3.60;99.90
8664;DHT22;4369;47.842;13.096;2023-02-01T01:16:31;3.60;99.90
8664;DHT22;4369;47.842;13.096;2023-02-01T01:18:58;3.50;99.90
8664;DHT22;4369;47.842;13.096;2023-02-01T01:21:26;3.50;99.90
8664;DHT22;4369;47.842;13.096;2023-02-01T01:23:53;3.40;99.90
8664;DHT22;4369;47.842;13.096;2023-02-01T01:26:23;3.40;99.90
8664;DHT22;4369;47.842;13.096;2023-02-01T01:28:51;3.30;99.90
8664;DHT22;4369;47.842;13.096;2023-02-01T01:31:19;3.20;99.90
8664;DHT22;4369;47.842;13.096;2023-02-01T01:33:51;3.10;99.90
8664;DHT22;4369;47.842;13.096;2023-02-01T01:36:19;3.10;99.90
8664;DHT22;4369;47.842;13.096;2023-02-01T01:38:46;3.00;99.90
8664;DHT22;4369;47.842;13.096;2023-02-01T01:41:15;3.00;99.90
8664;DHT22;4369;47.842;13.096;2023-02-01T01:43:53;3.00;99.90
8664;DHT22;4369;47.842;13.096;2023-02-01T01:46:21;3.00;99.90
8664;DHT22;4369;47.842;13.096;2023-02-01T01:48:52;3.10;99.90
8664;DHT22;4369;47.842;13.096;2023-02-01T01:51:24;3.10;99.90
8664;DHT22;4369;47.842;13.096;2023-02-01T01:53:58;3.20;99.90
8664;DHT22;4369;47.842;13.096;2023-02-01T01:56:26;3.20;99.90
8664;DHT22;4369;47.842;13.096;2023-02-01T01:58:56;3.30;99.90
8664;DHT22;4369;47.842;13.096;2023-02-01T02:01:23;3.30;99.90
8664;DHT22;4369;47.842;13.096;2023-02-01T02:03:51;3.30;99.90
8664;DHT22;4369;47.842;13.096;2023-02-01T02:06:29;3.20;99.90
8664;DHT22;4369;47.842;13.096;2023-02-01T02:08:57;3.30;99.90
8664;DHT22;4369;47.842;13.096;2023-02-01T02:11:23;3.40;99.90
8664;DHT22;4369;47.842;13.096;2023-02-01T02:13:52;3.30;99.90
8664;DHT22;4369;47.842;13.096;2023-02-01T02:16:44;3.30;99.90
8664;DHT22;4369;47.842;13.096;2023-02-01T02:19:42;3.40;99.90
8664;DHT22;4369;47.842;13.096;2023-02-01T02:22:35;3.40;99.90
8664;DHT22;4369;47.842;13.096;2023-02-01T02:25:28;3.40;99.90
8664;DHT22;4369;47.842;13.096;2023-02-01T02:27:59;3.40;99.90
8664;DHT22;4369;47.842;13.096;2023-02-01T02:30:41;3.40;99.90
8664;DHT22;4369;47.842;13.096;2023-02-01T02:33:40;3.30;99.90
8664;DHT22;4369;47.842;13.096;2023-02-01T02:36:12;3.40;99.90
8664;DHT22;4369;47.842;13.096;2023-02-01T02:38:47;3.40;99.90
8664;DHT22;4369;47.842;13.096;2023-02-01T02:41:20;3.40;99.90
8664;DHT22;4369;47.842;13.096;2023-02-01T02:44:12;3.40;99.90
8664;DHT22;4369;47.842;13.096;2023-02-01T02:47:03;3.50;99.90
8664;DHT22;4369;47.842;13.096;2023-02-01T02:49:56;3.40;99.90
8664;DHT22;4369;47.842;13.096;2023-02-01T02:52:45;3.40;99.90
8664;DHT22;4369;47.842;13.096;2023-02-01T02:55:33;3.30;99.90
8664;DHT22;4369;47.842;13.096;2023-02-01T02:58:03;3.30;99.90
8664;DHT22;4369;47.842;13.096;2023-02-01T03:00:48;3.40;99.90
8664;DHT22;4369;47.842;13.096;2023-02-01T03:03:36;3.40;99.90
8664;DHT22;4369;47.842;13.096;2023-02-01T03:06:23;3.40;99.90
8664;DHT22;4369;47.842;13.096;2023-02-01T03:08:51;3.40;99.90
8664;DHT22;4369;47.842;13.096;2023-02-01T03:11:20;3.30;99.90
8664;DHT22;4369;47.842;13.096;2023-02-01T03:13:51;3.30;99.90
8664;DHT22;4369;47.842;13.096;2023-02-01T03:16:22;3.30;99.90
8664;DHT22;4369;47.842;13.096;2023-02-01T03:18:56;3.20;99.90
8664;DHT22;4369;47.842;13.096;2023-02-01T03:21:30;3.20;99.90
8664;DHT22;4369;47.842;13.096;2023-02-01T03:24:02;3.10;99.90
8664;DHT22;4369;47.842;13.096;2023-02-01T03:26:31;3.20;99.90
8664;DHT22;4369;47.842;13.096;2023-02-01T03:29:03;3.10;99.90
8664;DHT22;4369;47.842;13.096;2023-02-01T03:31:32;3.10;99.90
8664;DHT22;4369;47.842;13.096;2023-02-01T03:33:59;3.10;99.90
8664;DHT22;4369;47.842;13.096;2023-02-01T03:36:31;3.00;99.90
8664;DHT22;4369;47.842;13.096;2023-02-01T03:39:04;3.00;99.90
8664;DHT22;4369;47.842;13.096;2023-02-01T03:41:37;2.80;99.90
8664;DHT22;4369;47.842;13.096;2023-02-01T03:44:12;2.80;99.90
8664;DHT22;4369;47.842;13.096;2023-02-01T03:46:42;2.70;99.90
8664;DHT22;4369;47.842;13.096;2023-02-01T03:49:16;2.70;99.90
8664;DHT22;4369;47.842;13.096;2023-02-01T03:51:47;2.70;99.90
8664;DHT22;4369;47.842;13.096;2023-02-01T03:54:15;2.80;99.90
8664;DHT22;4369;47.842;13.096;2023-02-01T03:56:45;2.80;99.90
8664;DHT22;4369;47.842;13.096;2023-02-01T03:59:14;2.80;99.90
8664;DHT22;4369;47.842;13.096;2023-02-01T04:01:41;2.80;99.90
8664;DHT22;4369;47.842;13.096;2023-02-01T04:04:08;2.70;99.90
8664;DHT22;4369;47.842;13.096;2023-02-01T04:06:35;2.60;99.90
8664;DHT22;4369;47.842;13.096;2023-02-01T04:09:04;2.60;99.90
8664;DHT22;4369;47.842;13.096;2023-02-01T04:11:30;2.60;99.90
8664;DHT22;4369;47.842;13.096;2023-02-01T04:13:57;2.60;99.90
8664;DHT22;4369;47.842;13.096;2023-02-01T04:16:30;2.50;99.90
8664;DHT22;4369;47.842;13.096;2023-02-01T04:18:57;2.50;99.90
8664;DHT22;4369;47.842;13.096;2023-02-01T04:21:25;2.40;99.90
8664;DHT22;4369;47.842;13.096;2023-02-01T04:23:52;2.40;99.90
8664;DHT22;4369;47.842;13.096;2023-02-01T04:26:20;2.50;99.90
8664;DHT22;4369;47.842;13.096;2023-02-01T04:28:48;2.50;99.90
8664;DHT22;4369;47.842;13.096;2023-02-01T04:31:15;2.50;99.90
8664;DHT22;4369;47.842;13.096;2023-02-01T04:33:42;2.60;99.90
8664;DHT22;4369;47.842;13.096;2023-02-01T04:36:09;2.50;99.90
8664;DHT22;4369;47.842;13.096;2023-02-01T04:38:36;2.60;99.90
8664;DHT22;4369;47.842;13.096;2023-02-01T04:41:03;2.60;99.90
8664;DHT22;4369;47.842;13.096;2023-02-01T04:43:32;2.60;99.90
8664;DHT22;4369;47.842;13.096;2023-02-01T04:45:58;2.70;99.90
8664;DHT22;4369;47.842;13.096;2023-02-01T04:48:25;2.70;99.90
8664;DHT22;4369;47.842;13.096;2023-02-01T04:50:53;2.80;99.90
8664;DHT22;4369;47.842;13.096;2023-02-01T04:53:20;2.80;99.90
8664;DHT22;4369;47.842;13.096;2023-02-01T04:55:48;2.80;99.90
8664;DHT22;4369;47.842;13.096;2023-02-01T04:58:15;2.80;99.90
8664;DHT22;4369;47.842;13.096;2023-02-01T05:00:43;2.80;99.90
8664;DHT22;4369;47.842;13.096;2023-02-01T05:03:10;2.90;99.90
8664;DHT22;4369;47.842;13.096;2023-02-01T05:05:37;2.90;99.90
8664;DHT22;4369;47.842;13.096;2023-02-01T05:08:04;2.90;99.90
8664;DHT22;4369;47.842;13.096;2023-02-01T05:10:31;2.90;99.90
8664;DHT22;4369;47.842;13.096;2023-02-01T05:12:57;3.00;99.90
8664;DHT22;4369;47.842;13.096;2023-02-01T05:15:43;3.10;99.90
8664;DHT22;4369;47.842;13.096;2023-02-01T05:18:11;3.10;99.90
8664;DHT22;4369;47.842;13.096;2023-02-01T05:20:38;3.20;99.90
8664;DHT22;4369;47.842;13.096;2023-02-01T05:23:05;3.30;99.90
8664;DHT22;4369;47.842;13.096;2023-02-01T05:25:32;3.40;99.90
8664;DHT22;4369;47.842;13.096;2023-02-01T05:27:59;3.50;99.90
8664;DHT22;4369;47.842;13.096;2023-02-01T05:30:25;3.50;99.90
8664;DHT22;4369;47.842;13.096;2023-02-01T05:32:54;3.60;99.90
8664;DHT22;4369;47.842;13.096;2023-02-01T05:35:20;3.60;99.90
8664;DHT22;4369;47.842;13.096;2023-02-01T05:37:47;3.50;99.90
8664;DHT22;4369;47.842;13.096;2023-02-01T05:40:14;3.50;99.90
8664;DHT22;4369;47.842;13.096;2023-02-01T05:42:41;3.60;99.90
8664;DHT22;4369;47.842;13.096;2023-02-01T05:45:09;3.50;99.90
8664;DHT22;4369;47.842;13.096;2023-02-01T05:47:36;3.60;99.90
8664;DHT22;4369;47.842;13.096;2023-02-01T05:50:06;3.60;99.90
8664;DHT22;4369;47.842;13.096;2023-02-01T05:52:33;3.70;99.90
8664;DHT22;4369;47.842;13.096;2023-02-01T05:55:00;3.70;99.90
8664;DHT22;4369;47.842;13.096;2023-02-01T05:57:27;3.80;99.90
8664;DHT22;4369;47.842;13.096;2023-02-01T05:59:54;3.80;99.90
8664;DHT22;4369;47.842;13.096;2023-02-01T06:02:20;3.80;99.90
8664;DHT22;4369;47.842;13.096;2023-02-01T06:04:49;3.80;99.90
8664;DHT22;4369;47.842;13.096;2023-02-01T06:07:17;3.80;99.90
8664;DHT22;4369;47.842;13.096;2023-02-01T06:09:44;3.80;99.90
8664;DHT22;4369;47.842;13.096;2023-02-01T06:12:11;3.70;99.90
8664;DHT22;4369;47.842;13.096;2023-02-01T06:14:39;3.80;99.90
8664;DHT22;4369;47.842;13.096;2023-02-01T06:17:06;3.80;99.90
8664;DHT22;4369;47.842;13.096;2023-02-01T06:19:33;3.80;99.90
8664;DHT22;4369;47.842;13.096;2023-02-01T06:22:00;3.80;99.90
8664;DHT22;4369;47.842;13.096;2023-02-01T06:24:28;3.80;99.90
8664;DHT22;4369;47.842;13.096;2023-02-01T06:26:55;3.80;99.90
8664;DHT22;4369;47.842;13.096;2023-02-01T06:29:22;3.90;99.90
8664;DHT22;4369;47.842;13.096;2023-02-01T06:31:49;3.80;99.90
8664;DHT22;4369;47.842;13.096;2023-02-01T06:34:16;3.90;99.90
8664;DHT22;4369;47.842;13.096;2023-02-01T06:36:43;3.90;99.90
8664;DHT22;4369;47.842;13.096;2023-02-01T06:39:10;3.90;99.90
8664;DHT22;4369;47.842;13.096;2023-02-01T06:41:42;3.90;99.90
8664;DHT22;4369;47.842;13.096;2023-02-01T06:44:09;3.90;99.90
8664;DHT22;4369;47.842;13.096;2023-02-01T06:46:36;3.90;99.90
8664;DHT22;4369;47.842;13.096;2023-02-01T06:49:03;3.90;99.90
8664;DHT22;4369;47.842;13.096;2023-02-01T06:51:30;3.90;99.90
8664;DHT22;4369;47.842;13.096;2023-02-01T06:53:57;3.90;99.90
8664;DHT22;4369;47.842;13.096;2023-02-01T06:56:24;3.90;99.90
8664;DHT22;4369;47.842;13.096;2023-02-01T06:58:52;3.90;99.90
8664;DHT22;4369;47.842;13.096;2023-02-01T07:01:19;3.90;99.90
8664;DHT22;4369;47.842;13.096;2023-02-01T07:03:50;3.90;99.90
8664;DHT22;4369;47.842;13.096;2023-02-01T07:06:17;3.90;99.90
8664;DHT22;4369;47.842;13.096;2023-02-01T07:08:45;3.90;99.90
8664;DHT22;4369;47.842;13.096;2023-02-01T07:11:13;3.90;99.90
8664;DHT22;4369;47.842;13.096;2023-02-01T07:13:40;3.90;99.90
8664;DHT22;4369;47.842;13.096;2023-02-01T07:16:11;4.00;99.90
8664;DHT22;4369;47.842;13.096;2023-02-01T07:18:38;4.00;99.90
8664;DHT22;4369;47.842;13.096;2023-02-01T07:21:06;4.10;99.90
8664;DHT22;4369;47.842;13.096;2023-02-01T07:23:33;4.10;99.90
8664;DHT22;4369;47.842;13.096;2023-02-01T07:26:01;4.10;99.90
8664;DHT22;4369;47.842;13.096;2023-02-01T07:28:30;4.10;99.90
8664;DHT22;4369;47.842;13.096;2023-02-01T07:31:02;4.20;99.90
8664;DHT22;4369;47.842;13.096;2023-02-01T07:33:31;4.20;99.90
8664;DHT22;4369;47.842;13.096;2023-02-01T07:35:57;4.20;99.90
8664;DHT22;4369;47.842;13.096;2023-02-01T07:38:27;4.20;99.90
8664;DHT22;4369;47.842;13.096;2023-02-01T07:40:57;4.20;99.90
8664;DHT22;4369;47.842;13.096;2023-02-01T07:43:25;4.20;99.90
8664;DHT22;4369;47.842;13.096;2023-02-01T07:45:52;4.20;99.90
8664;DHT22;4369;47.842;13.096;2023-02-01T07:48:19;4.20;99.90
8664;DHT22;4369;47.842;13.096;2023-02-01T07:50:48;4.20;99.90
8664;DHT22;4369;47.842;13.096;2023-02-01T07:53:15;4.30;99.90
8664;DHT22;4369;47.842;13.096;2023-02-01T07:55:42;4.40;99.90
8664;DHT22;4369;47.842;13.096;2023-02-01T07:58:09;4.40;99.90
8664;DHT22;4369;47.842;13.096;2023-02-01T08:00:36;4.50;99.90
8664;DHT22;4369;47.842;13.096;2023-02-01T08:03:20;4.60;99.90
8664;DHT22;4369;47.842;13.096;2023-02-01T08:05:48;4.60;99.90
8664;DHT22;4369;47.842;13.096;2023-02-01T08:08:15;4.60;99.90
8664;DHT22;4369;47.842;13.096;2023-02-01T08:10:41;4.70;99.90
8664;DHT22;4369;47.842;13.096;2023-02-01T08:13:08;4.80;99.90
8664;DHT22;4369;47.842;13.096;2023-02-01T08:15:35;4.90;99.90
8664;DHT22;4369;47.842;13.096;2023-02-01T08:18:02;4.90;99.90
8664;DHT22;4369;47.842;13.096;2023-02-01T08:20:30;4.90;99.90
8664;DHT22;4369;47.842;13.096;2023-02-01T08:22:58;4.90;99.90
8664;DHT22;4369;47.842;13.096;2023-02-01T08:25:25;5.00;99.90
8664;DHT22;4369;47.842;13.096;2023-02-01T08:27:53;5.00;99.90
8664;DHT22;4369;47.842;13.096;2023-02-01T08:30:21;5.00;99.90
8664;DHT22;4369;47.842;13.096;2023-02-01T08:32:48;5.10;99.90
8664;DHT22;4369;47.842;13.096;2023-02-01T08:35:15;5.10;99.90
8664;DHT22;4369;47.842;13.096;2023-02-01T08:37:41;5.10;99.90
8664;DHT22;4369;47.842;13.096;2023-02-01T08:40:11;5.10;99.90
8664;DHT22;4369;47.842;13.096;2023-02-01T08:42:39;5.10;99.90
8664;DHT22;4369;47.842;13.096;2023-02-01T08:45:18;5.10;99.90
8664;DHT22;4369;47.842;13.096;2023-02-01T08:47:45;5.10;99.90
8664;DHT22;4369;47.842;13.096;2023-02-01T08:50:13;5.10;99.90
8664;DHT22;4369;47.842;13.096;2023-02-01T08:52:40;5.20;99.90
8664;DHT22;4369;47.842;13.096;2023-02-01T08:55:09;5.20;99.90
8664;DHT22;4369;47.842;13.096;2023-02-01T08:57:37;5.20;99.90
8664;DHT22;4369;47.842;13.096;2023-02-01T09:00:05;5.30;99.90
8664;DHT22;4369;47.842;13.096;2023-02-01T09:02:33;5.30;99.90
8664;DHT22;4369;47.842;13.096;2023-02-01T09:05:00;5.30;99.90
8664;DHT22;4369;47.842;13.096;2023-02-01T09:07:27;5.30;99.90
8664;DHT22;4369;47.842;13.096;2023-02-01T09:09:54;5.40;99.90
8664;DHT22;4369;47.842;13.096;2023-02-01T09:12:23;5.40;99.90
8664;DHT22;4369;47.842;13.096;2023-02-01T09:14:50;5.50;99.90
8664;DHT22;4369;47.842;13.096;2023-02-01T09:17:17;5.50;99.90
8664;DHT22;4369;47.842;13.096;2023-02-01T09:19:43;5.50;99.90
8664;DHT22;4369;47.842;13.096;2023-02-01T09:22:10;5.40;99.90
8664;DHT22;4369;47.842;13.096;2023-02-01T09:24:37;5.50;99.90
8664;DHT22;4369;47.842;13.096;2023-02-01T09:27:04;5.60;99.90
8664;DHT22;4369;47.842;13.096;2023-02-01T09:29:32;5.60;99.90
8664;DHT22;4369;47.842;13.096;2023-02-01T09:31:59;5.60;99.90
8664;DHT22;4369;47.842;13.096;2023-02-01T09:34:26;5.60;99.90
8664;DHT22;4369;47.842;13.096;2023-02-01T09:36:53;5.70;99.90
8664;DHT22;4369;47.842;13.096;2023-02-01T09:39:20;5.70;99.90
8664;DHT22;4369;47.842;13.096;2023-02-01T09:41:55;5.70;99.90
8664;DHT22;4369;47.842;13.096;2023-02-01T09:44:43;5.70;99.90
8664;DHT22;4369;47.842;13.096;2023-02-01T09:47:13;5.70;99.90
8664;DHT22;4369;47.842;13.096;2023-02-01T09:49:48;5.70;99.90
8664;DHT22;4369;47.842;13.096;2023-02-01T09:52:20;5.70;99.90
8664;DHT22;4369;47.842;13.096;2023-02-01T09:54:51;5.70;99.90
8664;DHT22;4369;47.842;13.096;2023-02-01T09:57:24;5.70;99.90
8664;DHT22;4369;47.842;13.096;2023-02-01T09:59:57;5.70;99.90
8664;DHT22;4369;47.842;13.096;2023-02-01T10:02:28;5.80;99.90
8664;DHT22;4369;47.842;13.096;2023-02-01T10:04:57;5.80;99.90
8664;DHT22;4369;47.842;13.096;2023-02-01T10:07:30;5.80;99.90
8664;DHT22;4369;47.842;13.096;2023-02-01T10:10:03;5.90;99.90
8664;DHT22;4369;47.842;13.096;2023-02-01T10:12:53;5.90;99.90
8664;DHT22;4369;47.842;13.096;2023-02-01T10:15:34;6.00;99.90
8664;DHT22;4369;47.842;13.096;2023-02-01T10:18:23;6.00;99.90
8664;DHT22;4369;47.842;13.096;2023-02-01T10:20:59;6.00;99.90
8664;DHT22;4369;47.842;13.096;2023-02-01T10:26:26;6.00;99.90
8664;DHT22;4369;47.842;13.096;2023-02-01T10:28:57;6.00;99.90
8664;DHT22;4369;47.842;13.096;2023-02-01T10:31:30;6.00;99.90
8664;DHT22;4369;47.842;13.096;2023-02-01T10:33:59;6.00;99.90
8664;DHT22;4369;47.842;13.096;2023-02-01T10:36:29;6.00;99.90
8664;DHT22;4369;47.842;13.096;2023-02-01T10:38:58;6.10;99.90
8664;DHT22;4369;47.842;13.096;2023-02-01T10:41:28;6.00;99.90
8664;DHT22;4369;47.842;13.096;2023-02-01T10:43:58;6.00;99.90
8664;DHT22;4369;47.842;13.096;2023-02-01T10:46:29;6.10;99.90
8664;DHT22;4369;47.842;13.096;2023-02-01T10:48:57;6.10;99.90
8664;DHT22;4369;47.842;13.096;2023-02-01T10:51:29;6.10;99.90
8664;DHT22;4369;47.842;13.096;2023-02-01T10:54:00;6.10;99.90
8664;DHT22;4369;47.842;13.096;2023-02-01T10:56:29;6.10;99.90
8664;DHT22;4369;47.842;13.096;2023-02-01T10:59:00;6.10;99.90
8664;DHT22;4369;47.842;13.096;2023-02-01T11:01:33;6.10;99.90
8664;DHT22;4369;47.842;13.096;2023-02-01T11:04:01;6.10;99.90
8664;DHT22;4369;47.842;13.096;2023-02-01T11:06:30;6.10;99.90
8664;DHT22;4369;47.842;13.096;2023-02-01T11:09:00;6.10;99.90
8664;DHT22;4369;47.842;13.096;2023-02-01T11:11:27;6.00;99.90
8664;DHT22;4369;47.842;13.096;2023-02-01T11:13:57;6.10;99.90
8664;DHT22;4369;47.842;13.096;2023-02-01T11:16:33;6.00;99.90
8664;DHT22;4369;47.842;13.096;2023-02-01T11:19:00;6.10;99.90
8664;DHT22;4369;47.842;13.096;2023-02-01T11:21:27;6.10;99.90
8664;DHT22;4369;47.842;13.096;2023-02-01T11:23:54;6.10;99.90
8664;DHT22;4369;47.842;13.096;2023-02-01T11:26:23;6.10;99.90
8664;DHT22;4369;47.842;13.096;2023-02-01T11:28:54;6.10;99.90
8664;DHT22;4369;47.842;13.096;2023-02-01T11:31:24;6.10;99.90
8664;DHT22;4369;47.842;13.096;2023-02-01T11:33:55;6.10;99.90
8664;DHT22;4369;47.842;13.096;2023-02-01T11:36:27;6.20;99.90
8664;DHT22;4369;47.842;13.096;2023-02-01T11:39:09;6.20;99.90
8664;DHT22;4369;47.842;13.096;2023-02-01T11:41:44;6.30;99.90
8664;DHT22;4369;47.842;13.096;2023-02-01T11:44:31;6.30;99.90
8664;DHT22;4369;47.842;13.096;2023-02-01T11:47:22;6.30;99.90
8664;DHT22;4369;47.842;13.096;2023-02-01T11:49:52;6.30;99.90
8664;DHT22;4369;47.842;13.096;2023-02-01T11:52:34;6.20;99.90
8664;DHT22;4369;47.842;13.096;2023-02-01T11:55:17;6.20;99.90
8664;DHT22;4369;47.842;13.096;2023-02-01T11:57:57;6.10;99.90
8664;DHT22;4369;47.842;13.096;2023-02-01T12:00:33;6.20;99.90
8664;DHT22;4369;47.842;13.096;2023-02-01T12:03:36;6.20;99.90
8664;DHT22;4369;47.842;13.096;2023-02-01T12:06:10;6.20;99.90
8664;DHT22;4369;47.842;13.096;2023-02-01T12:11:46;6.50;99.90
8664;DHT22;4369;47.842;13.096;2023-02-01T12:14:26;6.90;99.90
8664;DHT22;4369;47.842;13.096;2023-02-01T12:17:18;6.90;99.90
8664;DHT22;4369;47.842;13.096;2023-02-01T12:20:01;6.80;99.90
8664;DHT22;4369;47.842;13.096;2023-02-01T12:22:40;6.70;99.90
8664;DHT22;4369;47.842;13.096;2023-02-01T12:25:28;6.80;99.90
8664;DHT22;4369;47.842;13.096;2023-02-01T12:31:30;6.50;99.90
8664;DHT22;4369;47.842;13.096;2023-02-01T12:34:21;6.40;99.90
8664;DHT22;4369;47.842;13.096;2023-02-01T12:36:56;6.40;99.90
8664;DHT22;4369;47.842;13.096;2023-02-01T12:39:32;6.40;99.90
8664;DHT22;4369;47.842;13.096;2023-02-01T12:42:03;6.40;99.90
8664;DHT22;4369;47.842;13.096;2023-02-01T12:44:39;6.30;99.90
8664;DHT22;4369;47.842;13.096;2023-02-01T12:47:14;6.40;99.90
8664;DHT22;4369;47.842;13.096;2023-02-01T12:49:51;6.40;99.90
8664;DHT22;4369;47.842;13.096;2023-02-01T12:52:26;6.30;99.90
8664;DHT22;4369;47.842;13.096;2023-02-01T12:55:02;6.20;99.90
8664;DHT22;4369;47.842;13.096;2023-02-01T12:57:32;6.20;99.90
8664;DHT22;4369;47.842;13.096;2023-02-01T13:00:06;6.20;99.90
8664;DHT22;4369;47.842;13.096;2023-02-01T13:02:40;6.20;99.90
8664;DHT22;4369;47.842;13.096;2023-02-01T13:05:15;6.20;99.90
8664;DHT22;4369;47.842;13.096;2023-02-01T13:07:49;6.10;99.90
8664;DHT22;4369;47.842;13.096;2023-02-01T13:10:22;6.20;99.90
8664;DHT22;4369;47.842;13.096;2023-02-01T13:12:54;6.20;99.90
8664;DHT22;4369;47.842;13.096;2023-02-01T13:15:26;6.10;99.90
8664;DHT22;4369;47.842;13.096;2023-02-01T13:17:57;6.10;99.90
8664;DHT22;4369;47.842;13.096;2023-02-01T13:20:44;6.10;99.90
8664;DHT22;4369;47.842;13.096;2023-02-01T13:23:20;6.10;99.90
8664;DHT22;4369;47.842;13.096;2023-02-01T13:25:51;6.10;99.90
8664;DHT22;4369;47.842;13.096;2023-02-01T13:28:25;6.10;99.90
8664;DHT22;4369;47.842;13.096;2023-02-01T13:31:24;6.00;99.90
8664;DHT22;4369;47.842;13.096;2023-02-01T13:37:02;6.00;99.90
8664;DHT22;4369;47.842;13.096;2023-02-01T13:39:45;5.90;99.90
8664;DHT22;4369;47.842;13.096;2023-02-01T13:42:18;5.90;99.90
8664;DHT22;4369;47.842;13.096;2023-02-01T13:44:48;5.80;99.90
8664;DHT22;4369;47.842;13.096;2023-02-01T13:47:23;5.80;99.90
8664;DHT22;4369;47.842;13.096;2023-02-01T13:49:52;5.80;99.90
8664;DHT22;4369;47.842;13.096;2023-02-01T13:52:25;5.80;99.90
8664;DHT22;4369;47.842;13.096;2023-02-01T13:55:03;5.90;99.90
8664;DHT22;4369;47.842;13.096;2023-02-01T13:57:42;5.90;99.90
8664;DHT22;4369;47.842;13.096;2023-02-01T14:00:24;5.90;99.90
8664;DHT22;4369;47.842;13.096;2023-02-01T14:03:17;5.90;99.90
8664;DHT22;4369;47.842;13.096;2023-02-01T14:06:05;5.90;99.90
8664;DHT22;4369;47.842;13.096;2023-02-01T14:08:44;5.80;99.90
8664;DHT22;4369;47.842;13.096;2023-02-01T14:11:36;5.80;99.90
8664;DHT22;4369;47.842;13.096;2023-02-01T14:17:41;5.60;99.90
8664;DHT22;4369;47.842;13.096;2023-02-01T14:23:16;5.60;99.90
8664;DHT22;4369;47.842;13.096;2023-02-01T14:25:44;5.50;99.90
8664;DHT22;4369;47.842;13.096;2023-02-01T14:28:19;5.50;99.90
8664;DHT22;4369;47.842;13.096;2023-02-01T14:30:48;5.50;99.90
8664;DHT22;4369;47.842;13.096;2023-02-01T14:33:21;5.50;99.90
8664;DHT22;4369;47.842;13.096;2023-02-01T14:36:04;5.50;99.90
8664;DHT22;4369;47.842;13.096;2023-02-01T14:38:34;5.50;99.90
8664;DHT22;4369;47.842;13.096;2023-02-01T14:41:26;5.50;99.90
8664;DHT22;4369;47.842;13.096;2023-02-01T14:47:10;5.40;99.90
8664;DHT22;4369;47.842;13.096;2023-02-01T14:49:54;5.50;99.90
8664;DHT22;4369;47.842;13.096;2023-02-01T14:52:32;5.50;99.90
8664;DHT22;4369;47.842;13.096;2023-02-01T14:55:05;5.50;99.90
8664;DHT22;4369;47.842;13.096;2023-02-01T14:57:36;5.50;99.90
8664;DHT22;4369;47.842;13.096;2023-02-01T15:00:17;5.40;99.90
8664;DHT22;4369;47.842;13.096;2023-02-01T15:02:45;5.40;99.90
8664;DHT22;4369;47.842;13.096;2023-02-01T15:05:29;5.50;99.90
8664;DHT22;4369;47.842;13.096;2023-02-01T15:08:05;5.50;99.90
8664;DHT22;4369;47.842;13.096;2023-02-01T15:10:39;5.50;99.90
8664;DHT22;4369;47.842;13.096;2023-02-01T15:13:21;5.50;99.90
8664;DHT22;4369;47.842;13.096;2023-02-01T15:16:08;5.50;99.90
8664;DHT22;4369;47.842;13.096;2023-02-01T15:18:36;5.50;99.90
8664;DHT22;4369;47.842;13.096;2023-02-01T15:21:12;5.50;99.90
8664;DHT22;4369;47.842;13.096;2023-02-01T15:23:40;5.50;99.90
8664;DHT22;4369;47.842;13.096;2023-02-01T15:26:08;5.50;99.90
8664;DHT22;4369;47.842;13.096;2023-02-01T15:28:35;5.40;99.90
8664;DHT22;4369;47.842;13.096;2023-02-01T15:31:05;5.50;99.90
8664;DHT22;4369;47.842;13.096;2023-02-01T15:33:32;5.50;99.90
8664;DHT22;4369;47.842;13.096;2023-02-01T15:36:11;5.50;99.90
8664;DHT22;4369;47.842;13.096;2023-02-01T15:38:43;5.50;99.90
8664;DHT22;4369;47.842;13.096;2023-02-01T15:41:14;5.50;99.90
8664;DHT22;4369;47.842;13.096;2023-02-01T15:43:45;5.50;99.90
8664;DHT22;4369;47.842;13.096;2023-02-01T15:46:16;5.50;99.90
8664;DHT22;4369;47.842;13.096;2023-02-01T15:48:46;5.40;99.90
8664;DHT22;4369;47.842;13.096;2023-02-01T15:51:18;5.40;99.90
8664;DHT22;4369;47.842;13.096;2023-02-01T15:53:51;5.40;99.90
8664;DHT22;4369;47.842;13.096;2023-02-01T15:56:29;5.40;99.90
8664;DHT22;4369;47.842;13.096;2023-02-01T15:59:01;5.40;99.90
8664;DHT22;4369;47.842;13.096;2023-02-01T16:01:29;5.40;99.90
8664;DHT22;4369;47.842;13.096;2023-02-01T16:04:10;5.40;99.90
8664;DHT22;4369;47.842;13.096;2023-02-01T16:06:46;5.40;99.90
8664;DHT22;4369;47.842;13.096;2023-02-01T16:09:15;5.40;99.90
8664;DHT22;4369;47.842;13.096;2023-02-01T16:11:51;5.40;99.90
8664;DHT22;4369;47.842;13.096;2023-02-01T16:14:20;5.40;99.90
8664;DHT22;4369;47.842;13.096;2023-02-01T16:16:48;5.40;99.90
8664;DHT22;4369;47.842;13.096;2023-02-01T16:19:15;5.40;99.90
8664;DHT22;4369;47.842;13.096;2023-02-01T16:21:44;5.30;99.90
8664;DHT22;4369;47.842;13.096;2023-02-01T16:26:47;5.30;99.90
8664;DHT22;4369;47.842;13.096;2023-02-01T16:29:14;5.20;99.90
8664;DHT22;4369;47.842;13.096;2023-02-01T16:31:41;5.20;99.90
8664;DHT22;4369;47.842;13.096;2023-02-01T16:34:14;5.10;99.90
8664;DHT22;4369;47.842;13.096;2023-02-01T16:36:43;5.10;99.90
8664;DHT22;4369;47.842;13.096;2023-02-01T16:39:11;5.00;99.90
8664;DHT22;4369;47.842;13.096;2023-02-01T16:41:39;5.00;99.90
8664;DHT22;4369;47.842;13.096;2023-02-01T16:44:09;5.00;99.90
8664;DHT22;4369;47.842;13.096;2023-02-01T16:46:39;4.90;99.90
8664;DHT22;4369;47.842;13.096;2023-02-01T16:49:17;4.90;99.90
8664;DHT22;4369;47.842;13.096;2023-02-01T16:51:47;4.80;99.90
8664;DHT22;4369;47.842;13.096;2023-02-01T16:54:15;4.80;99.90